sensor_id;sensor_type;location;lat;lon;timestamp;P1;durP1;ratioP1;P2;durP2;ratioP2
54665;SDS011;40566;50.006;36.180;2023-06-05T00:04:24;3.75;;;1.30;;
54665;SDS011;40566;50.006;36.180;2023-06-05T00:09:24;4.55;;;1.48;;
54665;SDS011;40566;50.006;36.180;2023-06-05T00:14:25;4.32;;;1.60;;
54665;SDS011;40566;50.006;36.180;2023-06-05T00:19:26;4.13;;;1.45;;
54665;SDS011;40566;50.006;36.180;2023-06-05T00:24:27;3.35;;;1.40;;
54665;SDS011;40566;50.006;36.180;2023-06-05T00:29:27;5.45;;;1.70;;
54665;SDS011;40566;50.006;36.180;2023-06-05T00:34:28;3.38;;;1.50;;
54665;SDS011;40566;50.006;36.180;2023-06-05T00:39:28;4.90;;;1.63;;
54665;SDS011;40566;50.006;36.180;2023-06-05T00:44:29;4.03;;;1.67;;
54665;SDS011;40566;50.006;36.180;2023-06-05T00:49:30;4.20;;;1.67;;
54665;SDS011;40566;50.006;36.180;2023-06-05T00:54:30;5.10;;;1.70;;
54665;SDS011;40566;50.006;36.180;2023-06-05T00:59:31;3.67;;;1.33;;
54665;SDS011;40566;50.006;36.180;2023-06-05T01:04:32;3.88;;;1.63;;
54665;SDS011;40566;50.006;36.180;2023-06-05T01:09:33;6.00;;;1.83;;
54665;SDS011;40566;50.006;36.180;2023-06-05T01:14:34;5.32;;;1.90;;
54665;SDS011;40566;50.006;36.180;2023-06-05T01:19:37;6.13;;;1.65;;
54665;SDS011;40566;50.006;36.180;2023-06-05T01:24:39;6.05;;;2.20;;
54665;SDS011;40566;50.006;36.180;2023-06-05T01:29:55;8.45;;;1.92;;
54665;SDS011;40566;50.006;36.180;2023-06-05T01:35:11;5.43;;;1.75;;
54665;SDS011;40566;50.006;36.180;2023-06-05T01:40:19;4.18;;;1.80;;
54665;SDS011;40566;50.006;36.180;2023-06-05T01:45:22;4.43;;;1.70;;
54665;SDS011;40566;50.006;36.180;2023-06-05T01:50:23;4.32;;;1.85;;
54665;SDS011;40566;50.006;36.180;2023-06-05T01:55:24;6.15;;;1.70;;
54665;SDS011;40566;50.006;36.180;2023-06-05T02:00:26;5.63;;;1.95;;
54665;SDS011;40566;50.006;36.180;2023-06-05T02:05:28;3.13;;;1.30;;
54665;SDS011;40566;50.006;36.180;2023-06-05T02:10:29;4.70;;;1.80;;
54665;SDS011;40566;50.006;36.180;2023-06-05T02:15:30;7.15;;;1.88;;
54665;SDS011;40566;50.006;36.180;2023-06-05T02:20:32;4.68;;;1.55;;
54665;SDS011;40566;50.006;36.180;2023-06-05T02:25:33;6.13;;;2.03;;
54665;SDS011;40566;50.006;36.180;2023-06-05T02:30:33;7.18;;;2.10;;
54665;SDS011;40566;50.006;36.180;2023-06-05T02:35:34;7.28;;;1.90;;
54665;SDS011;40566;50.006;36.180;2023-06-05T02:40:36;6.07;;;2.13;;
54665;SDS011;40566;50.006;36.180;2023-06-05T02:45:36;6.60;;;2.05;;
54665;SDS011;40566;50.006;36.180;2023-06-05T02:50:37;6.13;;;2.00;;
54665;SDS011;40566;50.006;36.180;2023-06-05T02:55:37;8.88;;;2.45;;
54665;SDS011;40566;50.006;36.180;2023-06-05T03:00:40;5.00;;;2.10;;
54665;SDS011;40566;50.006;36.180;2023-06-05T03:05:41;5.57;;;1.70;;
54665;SDS011;40566;50.006;36.180;2023-06-05T03:10:43;7.97;;;2.10;;
54665;SDS011;40566;50.006;36.180;2023-06-05T03:15:43;4.13;;;1.88;;
54665;SDS011;40566;50.006;36.180;2023-06-05T03:20:44;6.78;;;2.30;;
54665;SDS011;40566;50.006;36.180;2023-06-05T03:25:45;7.38;;;2.35;;
54665;SDS011;40566;50.006;36.180;2023-06-05T03:30:45;11.32;;;2.80;;
54665;SDS011;40566;50.006;36.180;2023-06-05T03:35:46;8.23;;;3.15;;
54665;SDS011;40566;50.006;36.180;2023-06-05T03:40:47;12.10;;;3.28;;
54665;SDS011;40566;50.006;36.180;2023-06-05T03:45:47;9.77;;;3.60;;
54665;SDS011;40566;50.006;36.180;2023-06-05T03:50:49;13.02;;;4.47;;
54665;SDS011;40566;50.006;36.180;2023-06-05T03:55:52;13.95;;;4.30;;
54665;SDS011;40566;50.006;36.180;2023-06-05T04:00:52;13.52;;;4.43;;
54665;SDS011;40566;50.006;36.180;2023-06-05T04:05:53;25.05;;;9.18;;
54665;SDS011;40566;50.006;36.180;2023-06-05T04:10:54;19.45;;;7.38;;
54665;SDS011;40566;50.006;36.180;2023-06-05T04:15:55;18.88;;;8.10;;
54665;SDS011;40566;50.006;36.180;2023-06-05T04:20:55;18.33;;;6.88;;
54665;SDS011;40566;50.006;36.180;2023-06-05T04:25:56;18.38;;;6.88;;
54665;SDS011;40566;50.006;36.180;2023-06-05T04:30:56;18.05;;;6.68;;
54665;SDS011;40566;50.006;36.180;2023-06-05T04:35:57;9.25;;;3.15;;
54665;SDS011;40566;50.006;36.180;2023-06-05T04:40:58;11.43;;;2.92;;
54665;SDS011;40566;50.006;36.180;2023-06-05T04:45:59;10.15;;;2.72;;
54665;SDS011;40566;50.006;36.180;2023-06-05T04:51:00;9.82;;;2.38;;
54665;SDS011;40566;50.006;36.180;2023-06-05T04:56:01;10.57;;;3.28;;
54665;SDS011;40566;50.006;36.180;2023-06-05T05:01:02;11.02;;;3.33;;
54665;SDS011;40566;50.006;36.180;2023-06-05T05:06:05;85.00;;;7.10;;
54665;SDS011;40566;50.006;36.180;2023-06-05T05:11:05;10.27;;;3.92;;
54665;SDS011;40566;50.006;36.180;2023-06-05T05:16:06;11.85;;;3.70;;
54665;SDS011;40566;50.006;36.180;2023-06-05T05:21:07;11.68;;;3.00;;
54665;SDS011;40566;50.006;36.180;2023-06-05T05:26:09;9.98;;;2.90;;
54665;SDS011;40566;50.006;36.180;2023-06-05T05:31:09;8.68;;;3.05;;
54665;SDS011;40566;50.006;36.180;2023-06-05T05:36:10;8.52;;;3.00;;
54665;SDS011;40566;50.006;36.180;2023-06-05T05:41:11;8.35;;;2.90;;
54665;SDS011;40566;50.006;36.180;2023-06-05T05:46:13;10.25;;;3.20;;
54665;SDS011;40566;50.006;36.180;2023-06-05T05:51:14;10.70;;;2.95;;
54665;SDS011;40566;50.006;36.180;2023-06-05T05:56:15;6.70;;;2.65;;
54665;SDS011;40566;50.006;36.180;2023-06-05T06:01:15;10.05;;;2.33;;
54665;SDS011;40566;50.006;36.180;2023-06-05T06:06:16;6.15;;;2.13;;
54665;SDS011;40566;50.006;36.180;2023-06-05T06:11:17;5.30;;;1.77;;
54665;SDS011;40566;50.006;36.180;2023-06-05T06:16:18;6.03;;;1.35;;
54665;SDS011;40566;50.006;36.180;2023-06-05T06:21:19;3.72;;;1.17;;
54665;SDS011;40566;50.006;36.180;2023-06-05T06:26:20;4.07;;;1.40;;
54665;SDS011;40566;50.006;36.180;2023-06-05T06:31:21;5.88;;;1.33;;
54665;SDS011;40566;50.006;36.180;2023-06-05T06:36:22;7.10;;;1.88;;
54665;SDS011;40566;50.006;36.180;2023-06-05T06:41:23;4.13;;;1.20;;
54665;SDS011;40566;50.006;36.180;2023-06-05T06:46:23;3.88;;;1.48;;
54665;SDS011;40566;50.006;36.180;2023-06-05T06:51:24;6.63;;;1.50;;
54665;SDS011;40566;50.006;36.180;2023-06-05T06:56:25;3.90;;;1.30;;
54665;SDS011;40566;50.006;36.180;2023-06-05T07:01:25;2.42;;;1.00;;
54665;SDS011;40566;50.006;36.180;2023-06-05T07:06:27;5.18;;;1.20;;
54665;SDS011;40566;50.006;36.180;2023-06-05T07:11:27;1.60;;;0.85;;
54665;SDS011;40566;50.006;36.180;2023-06-05T07:16:28;3.20;;;1.08;;
54665;SDS011;40566;50.006;36.180;2023-06-05T07:21:29;3.97;;;1.02;;
54665;SDS011;40566;50.006;36.180;2023-06-05T07:26:29;4.80;;;1.05;;
54665;SDS011;40566;50.006;36.180;2023-06-05T07:31:30;2.20;;;0.88;;
54665;SDS011;40566;50.006;36.180;2023-06-05T07:36:31;4.03;;;1.20;;
54665;SDS011;40566;50.006;36.180;2023-06-05T07:41:33;4.60;;;1.27;;
54665;SDS011;40566;50.006;36.180;2023-06-05T07:46:34;4.13;;;1.30;;
54665;SDS011;40566;50.006;36.180;2023-06-05T07:51:35;5.47;;;1.48;;
54665;SDS011;40566;50.006;36.180;2023-06-05T07:56:37;3.35;;;0.90;;
54665;SDS011;40566;50.006;36.180;2023-06-05T08:01:38;3.08;;;1.00;;
54665;SDS011;40566;50.006;36.180;2023-06-05T08:06:39;5.78;;;1.00;;
54665;SDS011;40566;50.006;36.180;2023-06-05T08:11:40;3.72;;;0.95;;
54665;SDS011;40566;50.006;36.180;2023-06-05T08:16:43;2.80;;;0.93;;
54665;SDS011;40566;50.006;36.180;2023-06-05T08:21:44;4.68;;;1.23;;
54665;SDS011;40566;50.006;36.180;2023-06-05T08:26:44;7.00;;;1.35;;
54665;SDS011;40566;50.006;36.180;2023-06-05T08:31:45;2.72;;;0.85;;
54665;SDS011;40566;50.006;36.180;2023-06-05T08:36:45;2.42;;;1.10;;
54665;SDS011;40566;50.006;36.180;2023-06-05T08:41:49;3.65;;;0.88;;
54665;SDS011;40566;50.006;36.180;2023-06-05T08:46:51;5.32;;;1.30;;
54665;SDS011;40566;50.006;36.180;2023-06-05T08:51:54;1.60;;;0.82;;
54665;SDS011;40566;50.006;36.180;2023-06-05T08:56:56;4.05;;;1.00;;
54665;SDS011;40566;50.006;36.180;2023-06-05T09:01:57;2.03;;;0.98;;
54665;SDS011;40566;50.006;36.180;2023-06-05T09:06:58;6.53;;;1.08;;
54665;SDS011;40566;50.006;36.180;2023-06-05T09:12:06;3.85;;;1.08;;
54665;SDS011;40566;50.006;36.180;2023-06-05T09:17:11;4.32;;;1.08;;
54665;SDS011;40566;50.006;36.180;2023-06-05T09:22:13;35.65;;;2.70;;
54665;SDS011;40566;50.006;36.180;2023-06-05T09:27:16;4.45;;;1.02;;
54665;SDS011;40566;50.006;36.180;2023-06-05T09:32:17;6.25;;;1.00;;
54665;SDS011;40566;50.006;36.180;2023-06-05T09:37:20;2.80;;;0.90;;
54665;SDS011;40566;50.006;36.180;2023-06-05T09:42:34;4.80;;;0.95;;
54665;SDS011;40566;50.006;36.180;2023-06-05T09:47:35;3.05;;;0.95;;
54665;SDS011;40566;50.006;36.180;2023-06-05T09:52:36;3.70;;;1.10;;
54665;SDS011;40566;50.006;36.180;2023-06-05T09:57:39;2.17;;;0.93;;
54665;SDS011;40566;50.006;36.180;2023-06-05T10:02:40;3.63;;;0.95;;
54665;SDS011;40566;50.006;36.180;2023-06-05T10:07:40;3.13;;;1.00;;
54665;SDS011;40566;50.006;36.180;2023-06-05T10:12:41;2.70;;;1.10;;
54665;SDS011;40566;50.006;36.180;2023-06-05T10:17:43;2.50;;;0.90;;
54665;SDS011;40566;50.006;36.180;2023-06-05T10:22:44;6.93;;;1.02;;
54665;SDS011;40566;50.006;36.180;2023-06-05T10:38:46;3.25;;;1.00;;
54665;SDS011;40566;50.006;36.180;2023-06-05T10:43:48;2.67;;;0.90;;
54665;SDS011;40566;50.006;36.180;2023-06-05T10:49:05;5.50;;;1.35;;
54665;SDS011;40566;50.006;36.180;2023-06-05T10:59:42;2.40;;;0.80;;
54665;SDS011;40566;50.006;36.180;2023-06-05T11:15:02;5.32;;;1.10;;
54665;SDS011;40566;50.006;36.180;2023-06-05T11:20:04;1.67;;;0.93;;
54665;SDS011;40566;50.006;36.180;2023-06-05T11:30:22;1.63;;;0.88;;
54665;SDS011;40566;50.006;36.180;2023-06-05T11:35:25;5.30;;;1.00;;
54665;SDS011;40566;50.006;36.180;2023-06-05T11:40:29;4.80;;;1.65;;
54665;SDS011;40566;50.006;36.180;2023-06-05T11:45:29;3.63;;;0.82;;
54665;SDS011;40566;50.006;36.180;2023-06-05T11:50:30;3.30;;;0.95;;
54665;SDS011;40566;50.006;36.180;2023-06-05T11:55:31;5.25;;;1.45;;
54665;SDS011;40566;50.006;36.180;2023-06-05T12:00:51;6.32;;;1.10;;
54665;SDS011;40566;50.006;36.180;2023-06-05T12:05:52;2.90;;;0.90;;
54665;SDS011;40566;50.006;36.180;2023-06-05T12:10:53;3.92;;;0.90;;
54665;SDS011;40566;50.006;36.180;2023-06-05T12:15:57;7.03;;;1.15;;
54665;SDS011;40566;50.006;36.180;2023-06-05T12:20:59;2.63;;;1.10;;
54665;SDS011;40566;50.006;36.180;2023-06-05T12:26:00;3.97;;;1.17;;
54665;SDS011;40566;50.006;36.180;2023-06-05T12:31:03;6.80;;;1.23;;
54665;SDS011;40566;50.006;36.180;2023-06-05T12:41:08;1.85;;;0.98;;
54665;SDS011;40566;50.006;36.180;2023-06-05T12:46:09;3.15;;;0.95;;
54665;SDS011;40566;50.006;36.180;2023-06-05T12:51:09;1.70;;;0.82;;
54665;SDS011;40566;50.006;36.180;2023-06-05T12:56:10;3.70;;;1.20;;
54665;SDS011;40566;50.006;36.180;2023-06-05T13:01:11;2.28;;;1.10;;
54665;SDS011;40566;50.006;36.180;2023-06-05T13:06:12;2.60;;;1.10;;
54665;SDS011;40566;50.006;36.180;2023-06-05T13:11:13;3.50;;;1.00;;
54665;SDS011;40566;50.006;36.180;2023-06-05T13:16:13;3.67;;;1.10;;
54665;SDS011;40566;50.006;36.180;2023-06-05T13:21:14;2.90;;;1.00;;
54665;SDS011;40566;50.006;36.180;2023-06-05T13:26:15;2.55;;;1.10;;
54665;SDS011;40566;50.006;36.180;2023-06-05T13:31:16;7.07;;;1.20;;
54665;SDS011;40566;50.006;36.180;2023-06-05T13:36:17;5.18;;;1.13;;
54665;SDS011;40566;50.006;36.180;2023-06-05T13:41:18;3.72;;;0.93;;
54665;SDS011;40566;50.006;36.180;2023-06-05T13:46:19;21.27;;;3.83;;
54665;SDS011;40566;50.006;36.180;2023-06-05T13:51:20;2.72;;;1.20;;
54665;SDS011;40566;50.006;36.180;2023-06-05T13:56:22;3.03;;;1.10;;
54665;SDS011;40566;50.006;36.180;2023-06-05T14:01:23;3.08;;;0.98;;
54665;SDS011;40566;50.006;36.180;2023-06-05T14:06:24;2.15;;;0.90;;
54665;SDS011;40566;50.006;36.180;2023-06-05T14:11:24;3.20;;;1.00;;
54665;SDS011;40566;50.006;36.180;2023-06-05T14:16:26;3.42;;;1.20;;
54665;SDS011;40566;50.006;36.180;2023-06-05T14:21:26;3.60;;;1.17;;
54665;SDS011;40566;50.006;36.180;2023-06-05T14:26:27;4.63;;;1.60;;
54665;SDS011;40566;50.006;36.180;2023-06-05T14:31:29;3.88;;;1.00;;
54665;SDS011;40566;50.006;36.180;2023-06-05T14:36:30;3.75;;;1.30;;
54665;SDS011;40566;50.006;36.180;2023-06-05T14:41:30;2.83;;;0.98;;
54665;SDS011;40566;50.006;36.180;2023-06-05T14:46:31;7.28;;;1.25;;
54665;SDS011;40566;50.006;36.180;2023-06-05T14:51:32;3.38;;;1.00;;
54665;SDS011;40566;50.006;36.180;2023-06-05T14:56:32;6.60;;;1.52;;
54665;SDS011;40566;50.006;36.180;2023-06-05T15:01:33;5.22;;;1.40;;
54665;SDS011;40566;50.006;36.180;2023-06-05T15:06:34;3.13;;;1.08;;
54665;SDS011;40566;50.006;36.180;2023-06-05T15:11:34;4.80;;;1.20;;
54665;SDS011;40566;50.006;36.180;2023-06-05T15:16:35;3.45;;;1.10;;
54665;SDS011;40566;50.006;36.180;2023-06-05T15:21:37;2.97;;;0.90;;
54665;SDS011;40566;50.006;36.180;2023-06-05T15:26:37;5.07;;;1.10;;
54665;SDS011;40566;50.006;36.180;2023-06-05T15:31:38;3.40;;;1.15;;
54665;SDS011;40566;50.006;36.180;2023-06-05T15:36:40;2.10;;;0.98;;
54665;SDS011;40566;50.006;36.180;2023-06-05T15:41:40;3.42;;;1.42;;
54665;SDS011;40566;50.006;36.180;2023-06-05T15:46:41;3.78;;;1.00;;
54665;SDS011;40566;50.006;36.180;2023-06-05T15:51:42;7.85;;;2.28;;
54665;SDS011;40566;50.006;36.180;2023-06-05T15:56:46;9.40;;;1.88;;
54665;SDS011;40566;50.006;36.180;2023-06-05T16:02:01;3.25;;;1.30;;
54665;SDS011;40566;50.006;36.180;2023-06-05T16:07:02;5.60;;;1.70;;
54665;SDS011;40566;50.006;36.180;2023-06-05T16:12:03;4.38;;;1.17;;
54665;SDS011;40566;50.006;36.180;2023-06-05T16:17:05;3.63;;;1.27;;
54665;SDS011;40566;50.006;36.180;2023-06-05T16:22:05;2.72;;;1.00;;
54665;SDS011;40566;50.006;36.180;2023-06-05T16:27:06;3.75;;;1.40;;
54665;SDS011;40566;50.006;36.180;2023-06-05T16:32:07;3.47;;;1.10;;
54665;SDS011;40566;50.006;36.180;2023-06-05T16:37:07;3.20;;;1.05;;
54665;SDS011;40566;50.006;36.180;2023-06-05T16:42:08;5.18;;;1.10;;
54665;SDS011;40566;50.006;36.180;2023-06-05T16:47:08;5.80;;;1.40;;
54665;SDS011;40566;50.006;36.180;2023-06-05T16:52:09;4.35;;;1.30;;
54665;SDS011;40566;50.006;36.180;2023-06-05T16:57:10;3.53;;;1.13;;
54665;SDS011;40566;50.006;36.180;2023-06-05T17:02:10;3.80;;;1.58;;
54665;SDS011;40566;50.006;36.180;2023-06-05T17:07:14;4.43;;;1.20;;
54665;SDS011;40566;50.006;36.180;2023-06-05T17:12:14;2.40;;;1.25;;
54665;SDS011;40566;50.006;36.180;2023-06-05T17:17:15;7.03;;;1.42;;
54665;SDS011;40566;50.006;36.180;2023-06-05T17:22:15;6.57;;;1.33;;
54665;SDS011;40566;50.006;36.180;2023-06-05T17:27:16;4.75;;;1.15;;
54665;SDS011;40566;50.006;36.180;2023-06-05T17:32:17;5.70;;;1.38;;
54665;SDS011;40566;50.006;36.180;2023-06-05T17:37:18;7.95;;;1.50;;
54665;SDS011;40566;50.006;36.180;2023-06-05T17:42:18;11.55;;;1.90;;
54665;SDS011;40566;50.006;36.180;2023-06-05T17:47:19;8.52;;;1.85;;
54665;SDS011;40566;50.006;36.180;2023-06-05T17:52:19;14.38;;;2.40;;
54665;SDS011;40566;50.006;36.180;2023-06-05T17:57:20;21.63;;;2.95;;
54665;SDS011;40566;50.006;36.180;2023-06-05T18:02:21;34.30;;;4.28;;
54665;SDS011;40566;50.006;36.180;2023-06-05T18:07:21;27.63;;;3.78;;
54665;SDS011;40566;50.006;36.180;2023-06-05T18:12:23;15.57;;;2.47;;
54665;SDS011;40566;50.006;36.180;2023-06-05T18:17:24;7.78;;;2.42;;
54665;SDS011;40566;50.006;36.180;2023-06-05T18:22:29;33.30;;;7.93;;
54665;SDS011;40566;50.006;36.180;2023-06-05T18:27:30;41.20;;;13.55;;
54665;SDS011;40566;50.006;36.180;2023-06-05T18:32:30;23.98;;;8.82;;
54665;SDS011;40566;50.006;36.180;2023-06-05T18:37:31;27.30;;;9.27;;
54665;SDS011;40566;50.006;36.180;2023-06-05T18:42:32;21.65;;;7.25;;
54665;SDS011;40566;50.006;36.180;2023-06-05T18:47:32;17.10;;;5.82;;
54665;SDS011;40566;50.006;36.180;2023-06-05T18:52:34;15.55;;;5.05;;
54665;SDS011;40566;50.006;36.180;2023-06-05T18:57:35;20.27;;;5.40;;
54665;SDS011;40566;50.006;36.180;2023-06-05T19:02:36;16.38;;;4.95;;
54665;SDS011;40566;50.006;36.180;2023-06-05T19:07:37;15.05;;;4.50;;
54665;SDS011;40566;50.006;36.180;2023-06-05T19:12:37;22.20;;;4.00;;
54665;SDS011;40566;50.006;36.180;2023-06-05T19:17:40;11.93;;;4.03;;
54665;SDS011;40566;50.006;36.180;2023-06-05T19:22:41;11.55;;;3.78;;
54665;SDS011;40566;50.006;36.180;2023-06-05T19:27:43;9.38;;;3.78;;
54665;SDS011;40566;50.006;36.180;2023-06-05T19:32:44;8.88;;;2.97;;
54665;SDS011;40566;50.006;36.180;2023-06-05T19:37:45;9.95;;;3.55;;
54665;SDS011;40566;50.006;36.180;2023-06-05T19:42:47;9.30;;;2.90;;
54665;SDS011;40566;50.006;36.180;2023-06-05T19:47:47;6.88;;;2.85;;
54665;SDS011;40566;50.006;36.180;2023-06-05T19:52:48;7.38;;;2.78;;
54665;SDS011;40566;50.006;36.180;2023-06-05T19:57:48;9.43;;;3.30;;
54665;SDS011;40566;50.006;36.180;2023-06-05T20:02:49;6.78;;;2.88;;
54665;SDS011;40566;50.006;36.180;2023-06-05T20:07:51;9.13;;;2.88;;
54665;SDS011;40566;50.006;36.180;2023-06-05T20:12:51;7.55;;;2.55;;
54665;SDS011;40566;50.006;36.180;2023-06-05T20:17:52;8.55;;;2.65;;
54665;SDS011;40566;50.006;36.180;2023-06-05T20:22:52;8.43;;;2.80;;
54665;SDS011;40566;50.006;36.180;2023-06-05T20:27:54;6.93;;;2.58;;
54665;SDS011;40566;50.006;36.180;2023-06-05T20:32:55;8.50;;;2.30;;
54665;SDS011;40566;50.006;36.180;2023-06-05T20:37:58;7.13;;;2.60;;
54665;SDS011;40566;50.006;36.180;2023-06-05T20:42:58;10.40;;;2.72;;
54665;SDS011;40566;50.006;36.180;2023-06-05T20:48:01;8.07;;;2.80;;
54665;SDS011;40566;50.006;36.180;2023-06-05T20:53:04;8.48;;;2.75;;
54665;SDS011;40566;50.006;36.180;2023-06-05T20:58:05;6.07;;;2.65;;
54665;SDS011;40566;50.006;36.180;2023-06-05T21:03:07;12.57;;;2.70;;
54665;SDS011;40566;50.006;36.180;2023-06-05T21:08:09;8.93;;;2.92;;
54665;SDS011;40566;50.006;36.180;2023-06-05T21:13:10;7.80;;;2.38;;
54665;SDS011;40566;50.006;36.180;2023-06-05T21:18:10;6.18;;;2.17;;
54665;SDS011;40566;50.006;36.180;2023-06-05T21:23:14;10.32;;;2.40;;
54665;SDS011;40566;50.006;36.180;2023-06-05T21:28:14;5.15;;;1.88;;
54665;SDS011;40566;50.006;36.180;2023-06-05T21:33:16;5.43;;;2.05;;
54665;SDS011;40566;50.006;36.180;2023-06-05T21:38:16;4.60;;;2.00;;
54665;SDS011;40566;50.006;36.180;2023-06-05T21:43:17;5.63;;;2.28;;
54665;SDS011;40566;50.006;36.180;2023-06-05T21:48:18;6.05;;;2.03;;
54665;SDS011;40566;50.006;36.180;2023-06-05T21:53:20;7.28;;;2.22;;
54665;SDS011;40566;50.006;36.180;2023-06-05T21:58:21;6.60;;;2.15;;
54665;SDS011;40566;50.006;36.180;2023-06-05T22:03:21;4.93;;;2.30;;
54665;SDS011;40566;50.006;36.180;2023-06-05T22:08:22;6.50;;;2.08;;
54665;SDS011;40566;50.006;36.180;2023-06-05T22:13:23;9.57;;;2.55;;
54665;SDS011;40566;50.006;36.180;2023-06-05T22:18:24;5.43;;;2.17;;
54665;SDS011;40566;50.006;36.180;2023-06-05T22:23:28;11.57;;;2.28;;
54665;SDS011;40566;50.006;36.180;2023-06-05T22:28:28;6.75;;;2.15;;
54665;SDS011;40566;50.006;36.180;2023-06-05T22:33:29;8.80;;;2.47;;
54665;SDS011;40566;50.006;36.180;2023-06-05T22:38:29;5.18;;;2.00;;
54665;SDS011;40566;50.006;36.180;2023-06-05T22:43:31;5.43;;;2.00;;
54665;SDS011;40566;50.006;36.180;2023-06-05T22:48:32;6.20;;;2.30;;
54665;SDS011;40566;50.006;36.180;2023-06-05T22:53:32;5.70;;;2.30;;
54665;SDS011;40566;50.006;36.180;2023-06-05T22:58:33;8.55;;;2.50;;
54665;SDS011;40566;50.006;36.180;2023-06-05T23:03:34;6.20;;;2.13;;
54665;SDS011;40566;50.006;36.180;2023-06-05T23:08:34;7.25;;;2.13;;
54665;SDS011;40566;50.006;36.180;2023-06-05T23:13:36;6.45;;;2.50;;
54665;SDS011;40566;50.006;36.180;2023-06-05T23:18:36;7.32;;;2.50;;
54665;SDS011;40566;50.006;36.180;2023-06-05T23:23:37;5.78;;;2.25;;
54665;SDS011;40566;50.006;36.180;2023-06-05T23:28:37;6.53;;;2.42;;
54665;SDS011;40566;50.006;36.180;2023-06-05T23:33:38;6.60;;;2.92;;
54665;SDS011;40566;50.006;36.180;2023-06-05T23:38:38;8.27;;;2.65;;
54665;SDS011;40566;50.006;36.180;2023-06-05T23:43:39;6.68;;;2.85;;
54665;SDS011;40566;50.006;36.180;2023-06-05T23:48:40;8.38;;;2.90;;
54665;SDS011;40566;50.006;36.180;2023-06-05T23:53:41;7.05;;;2.88;;
54665;SDS011;40566;50.006;36.180;2023-06-05T23:58:42;7.68;;;2.33;;
